Capitol Logistics 1135


EBLG
Liège Airport
Liege, BE
LEMD
Adolfo Suárez Madrid-Barajas International Airport
Madrid, ES

Activity Log

Date Flight Route Aircraft Duration
11/01/2019 CPX735 Not Available B738 2h 23m

Route Details

Aircraft Information
Primary: Boeing 737-800BCF
Backup: Not Available
Route Data
Distance: 716nm
Sched. Duration: 1h 44m
Avg. Duration: 2h 23m (+78m)
Times Flown: 1
Recm'd Route: Not Available
Planned Altitude: 34,000ft
Origin Wx: EBLG 271720Z 31010KT 1500 -SN SCT002 OVC003 M00/M01 Q1000 TEMPO 1000 -SN
Dest. Wx: LEMD 271730Z 28011KT 240V310 7000 NSC 18/M01 Q1021 NOSIG
Notes:

Financial History
Total Freight: 23,760lbs
Average Load: 23,760lbs/flt
Fuel Used: 10,839lbs
Avg. Fuel Used: 10,839lbs/flt
Fuel Expense: $12,031
Avg. Fuel Expense: $12,031
Avg. Fuel Cost: $1.11/lbs
Total Gross Income: $47,520
Pilot Pay: $229
Total Expenses: $5,184
Total Revenue: $29,735
Average Revenue: $47,520.00